createdAt,value
2023-08-07T00:02:26.809Z,98.70
2023-08-07T00:04:53.940Z,98.60
2023-08-07T00:07:20.888Z,98.60
2023-08-07T00:09:47.858Z,99.00
2023-08-07T00:12:14.786Z,98.70
2023-08-07T00:14:41.770Z,98.80
2023-08-07T00:17:09.533Z,98.90
2023-08-07T00:19:36.532Z,99.30
2023-08-07T00:22:03.457Z,99.10
2023-08-07T00:24:30.380Z,99.20
2023-08-07T00:26:57.812Z,99.20
2023-08-07T00:29:25.055Z,99.20
2023-08-07T00:31:52.001Z,99.60
2023-08-07T00:34:18.956Z,99.30
2023-08-07T00:36:46.092Z,99.30
2023-08-07T00:39:13.021Z,99.30
2023-08-07T00:41:42.582Z,99.30
2023-08-07T00:44:09.653Z,99.30
2023-08-07T00:46:37.853Z,99.40
2023-08-07T00:49:05.169Z,99.40
2023-08-07T00:51:32.707Z,99.40
2023-08-07T00:54:01.984Z,99.40
2023-08-07T00:56:29.634Z,99.50
2023-08-07T00:58:58.960Z,99.40
2023-08-07T01:01:26.757Z,99.40
2023-08-07T01:03:53.948Z,99.50
2023-08-07T01:06:20.877Z,99.60
2023-08-07T01:08:48.507Z,99.60
2023-08-07T01:11:40.124Z,99.60
2023-08-07T01:14:34.789Z,99.80
2023-08-07T01:17:07.722Z,99.70
2023-08-07T01:19:36.463Z,99.70
2023-08-07T01:22:17.454Z,99.70
2023-08-07T01:24:51.635Z,99.90
2023-08-07T01:27:18.452Z,99.80
2023-08-07T01:30:00.410Z,99.80
2023-08-07T01:32:53.114Z,99.90
2023-08-07T01:35:26.375Z,99.90
2023-08-07T01:37:57.034Z,99.90
2023-08-07T01:40:24.816Z,99.90
2023-08-07T01:42:54.547Z,99.90
2023-08-07T01:45:26.201Z,99.90
2023-08-07T01:47:53.745Z,99.90
2023-08-07T01:50:22.114Z,99.90
2023-08-07T01:52:49.111Z,99.90
2023-08-07T01:55:18.060Z,99.90
2023-08-07T01:57:51.242Z,99.90
2023-08-07T02:00:18.535Z,99.90
2023-08-07T02:02:47.793Z,99.90
2023-08-07T02:05:15.406Z,99.90
2023-08-07T02:07:42.914Z,99.90
2023-08-07T02:10:10.412Z,99.90
2023-08-07T02:12:37.427Z,99.90
2023-08-07T02:15:04.956Z,99.60
2023-08-07T02:17:32.338Z,99.60
2023-08-07T02:19:59.353Z,99.50
2023-08-07T02:22:26.457Z,99.40
2023-08-07T02:24:53.453Z,99.30
2023-08-07T02:27:20.446Z,99.30
2023-08-07T02:29:47.929Z,99.30
2023-08-07T02:32:14.895Z,99.20
2023-08-07T02:34:41.839Z,99.20
2023-08-07T02:37:08.771Z,99.10
2023-08-07T02:39:37.085Z,99.20
2023-08-07T02:42:04.393Z,99.10
2023-08-07T02:44:31.356Z,99.20
2023-08-07T02:46:58.482Z,99.20
2023-08-07T02:49:26.027Z,99.20
2023-08-07T02:51:53.492Z,99.20
2023-08-07T02:54:20.435Z,99.20
2023-08-07T02:56:47.497Z,99.30
2023-08-07T02:59:14.447Z,99.30
2023-08-07T03:01:41.532Z,99.30
2023-08-07T03:04:08.483Z,99.40
2023-08-07T03:06:35.471Z,99.40
2023-08-07T03:09:02.445Z,99.50
2023-08-07T03:11:29.435Z,99.50
2023-08-07T03:13:56.469Z,99.50
2023-08-07T03:16:23.439Z,99.60
2023-08-07T03:18:50.538Z,99.70
2023-08-07T03:21:17.513Z,99.80
2023-08-07T03:23:44.578Z,99.80
2023-08-07T03:28:43.754Z,99.90
2023-08-07T03:31:10.830Z,99.90
2023-08-07T03:33:38.268Z,99.90
2023-08-07T03:36:06.054Z,99.90
2023-08-07T03:38:34.098Z,99.90
2023-08-07T03:41:01.060Z,99.90
2023-08-07T03:43:29.852Z,99.90
2023-08-07T03:46:03.229Z,99.90
2023-08-07T03:48:32.010Z,99.90
2023-08-07T03:51:09.422Z,99.90
2023-08-07T03:53:41.242Z,99.90
2023-08-07T03:56:08.248Z,99.90
2023-08-07T03:58:36.405Z,99.90
2023-08-07T04:01:04.206Z,99.90
2023-08-07T04:03:32.215Z,99.90
2023-08-07T04:06:01.690Z,99.90
2023-08-07T04:08:28.693Z,99.90
2023-08-07T04:11:06.254Z,99.90
2023-08-07T04:13:35.063Z,99.90
2023-08-07T04:16:05.285Z,99.90
2023-08-07T04:18:33.512Z,99.90
2023-08-07T04:21:02.814Z,99.90
2023-08-07T04:23:29.793Z,99.90
2023-08-07T04:25:57.050Z,99.90
2023-08-07T04:28:25.533Z,99.90
2023-08-07T04:30:53.585Z,99.90
2023-08-07T04:33:21.514Z,99.90
2023-08-07T04:35:48.947Z,99.90
2023-08-07T04:38:17.524Z,99.90
2023-08-07T04:40:48.798Z,99.90
2023-08-07T04:43:17.728Z,99.90
2023-08-07T04:45:46.276Z,99.90
2023-08-07T04:48:14.306Z,99.90
2023-08-07T04:50:41.881Z,99.90
2023-08-07T04:53:08.906Z,99.90
2023-08-07T04:55:36.048Z,99.90
2023-08-07T04:58:03.027Z,99.90
2023-08-07T05:00:30.351Z,99.90
2023-08-07T05:02:57.416Z,99.90
2023-08-07T05:05:24.937Z,99.90
2023-08-07T05:07:52.237Z,99.80
2023-08-07T05:10:19.416Z,99.70
2023-08-07T05:12:46.411Z,99.80
2023-08-07T05:15:13.385Z,99.80
2023-08-07T05:17:40.558Z,99.90
2023-08-07T05:20:09.381Z,99.90
2023-08-07T05:22:36.346Z,99.90
2023-08-07T05:25:03.272Z,99.80
2023-08-07T05:27:30.204Z,99.80
2023-08-07T05:29:57.118Z,99.70
2023-08-07T05:32:24.110Z,99.60
2023-08-07T05:34:51.698Z,99.60
2023-08-07T05:37:18.696Z,99.50
2023-08-07T05:39:45.604Z,99.50
2023-08-07T05:42:13.386Z,99.40
2023-08-07T05:44:40.339Z,99.30
2023-08-07T05:47:08.152Z,99.30
2023-08-07T05:49:35.080Z,99.20
2023-08-07T05:52:02.137Z,99.20
2023-08-07T05:54:29.086Z,99.30
2023-08-07T05:56:56.032Z,99.30
2023-08-07T05:59:22.963Z,99.30
2023-08-07T06:01:49.947Z,99.10
2023-08-07T06:04:16.956Z,99.20
2023-08-07T06:06:44.046Z,99.20
2023-08-07T06:09:11.124Z,99.30
2023-08-07T06:11:38.218Z,99.30
2023-08-07T06:14:05.205Z,99.30
2023-08-07T06:16:32.211Z,99.20
2023-08-07T06:18:59.874Z,99.20
2023-08-07T06:21:29.345Z,99.20
2023-08-07T06:23:56.438Z,99.10
2023-08-07T06:26:23.514Z,99.10
2023-08-07T06:28:50.448Z,99.10
2023-08-07T06:31:19.455Z,99.10
2023-08-07T06:33:46.472Z,99.20
2023-08-07T06:36:13.474Z,99.20
2023-08-07T06:38:40.417Z,99.20
2023-08-07T06:41:07.379Z,99.30
2023-08-07T06:43:34.336Z,99.30
2023-08-07T06:46:01.337Z,99.30
2023-08-07T06:48:28.278Z,99.20
2023-08-07T06:50:55.202Z,99.20
2023-08-07T06:53:22.208Z,99.30
2023-08-07T06:55:49.235Z,99.30
2023-08-07T06:58:16.182Z,99.20
2023-08-07T07:00:43.149Z,99.20
2023-08-07T07:03:11.072Z,99.10
2023-08-07T07:05:38.070Z,99.10
2023-08-07T07:08:05.365Z,98.90
2023-08-07T07:10:33.101Z,99.00
2023-08-07T07:13:00.219Z,99.00
2023-08-07T07:15:27.267Z,98.90
2023-08-07T07:17:54.242Z,98.80
2023-08-07T07:20:21.483Z,98.80
2023-08-07T07:22:48.626Z,98.90
2023-08-07T07:25:15.619Z,98.90
2023-08-07T07:27:42.585Z,99.00
2023-08-07T07:30:10.275Z,99.00
2023-08-07T07:32:37.398Z,99.00
2023-08-07T07:35:05.064Z,99.00
2023-08-07T07:37:32.751Z,99.10
2023-08-07T07:39:59.752Z,99.20
2023-08-07T07:42:26.856Z,99.20
2023-08-07T07:44:53.788Z,99.20
2023-08-07T07:47:21.672Z,99.60
2023-08-07T07:49:52.105Z,99.10
2023-08-07T07:52:19.027Z,99.20
2023-08-07T07:54:45.935Z,99.30
2023-08-07T07:57:12.896Z,99.40
2023-08-07T07:59:39.817Z,99.50
2023-08-07T08:02:07.181Z,99.50
2023-08-07T08:04:36.476Z,99.50
2023-08-07T08:07:04.777Z,99.40
2023-08-07T08:09:31.736Z,99.70
2023-08-07T08:11:58.935Z,99.50
2023-08-07T08:14:26.079Z,99.60
2023-08-07T08:16:52.985Z,99.50
2023-08-07T08:19:19.897Z,99.50
2023-08-07T08:21:46.815Z,99.50
2023-08-07T08:24:13.800Z,99.30
2023-08-07T08:26:40.849Z,99.60
2023-08-07T08:29:09.113Z,99.30
2023-08-07T08:31:36.312Z,99.20
2023-08-07T08:34:04.806Z,99.30
2023-08-07T08:36:31.749Z,99.20
2023-08-07T08:38:58.678Z,99.10
2023-08-07T08:41:26.530Z,99.10
2023-08-07T08:43:55.114Z,99.10
2023-08-07T08:46:25.192Z,98.80
2023-08-07T08:48:57.782Z,98.60
2023-08-07T08:51:26.365Z,98.40
2023-08-07T08:53:57.272Z,98.30
2023-08-07T08:56:24.676Z,98.40
2023-08-07T08:58:52.310Z,98.50
2023-08-07T09:01:19.857Z,98.20
2023-08-07T09:03:47.058Z,98.20
2023-08-07T09:06:14.855Z,98.10
2023-08-07T09:08:44.687Z,98.10
2023-08-07T09:11:13.754Z,98.10
2023-08-07T09:13:44.185Z,97.90
2023-08-07T09:16:12.868Z,97.70
2023-08-07T09:18:40.249Z,97.40
2023-08-07T09:21:07.389Z,97.40
2023-08-07T09:23:34.297Z,97.60
2023-08-07T09:26:05.612Z,97.30
2023-08-07T09:28:33.843Z,97.30
2023-08-07T09:31:03.269Z,97.30
2023-08-07T09:33:31.532Z,97.20
2023-08-07T09:36:00.301Z,97.10
2023-08-07T09:38:33.863Z,97.00
2023-08-07T09:41:05.163Z,96.50
2023-08-07T09:43:36.701Z,96.60
2023-08-07T09:46:08.148Z,96.50
2023-08-07T09:48:43.406Z,96.10
2023-08-07T09:51:11.249Z,96.00
2023-08-07T09:53:38.511Z,95.40
2023-08-07T09:56:05.657Z,95.00
2023-08-07T09:58:32.686Z,95.30
2023-08-07T10:01:05.464Z,95.00
2023-08-07T10:03:33.082Z,94.80
2023-08-07T10:06:00.702Z,94.30
2023-08-07T10:08:29.176Z,94.40
2023-08-07T10:10:56.109Z,94.50
2023-08-07T10:13:37.830Z,94.50
2023-08-07T10:16:06.840Z,94.40
2023-08-07T10:18:34.459Z,93.50
2023-08-07T10:21:04.600Z,93.70
2023-08-07T10:23:36.021Z,94.00
2023-08-07T10:26:09.927Z,94.10
2023-08-07T10:28:40.586Z,93.90
2023-08-07T10:31:12.196Z,93.70
2023-08-07T10:33:39.505Z,93.10
2023-08-07T10:36:11.395Z,92.10
2023-08-07T10:38:38.833Z,92.00
2023-08-07T10:41:10.952Z,91.90
2023-08-07T10:43:46.054Z,91.70
2023-08-07T10:46:24.100Z,91.40
2023-08-07T10:49:01.065Z,91.60
2023-08-07T10:51:34.123Z,91.40
2023-08-07T10:54:03.178Z,90.90
2023-08-07T10:56:38.593Z,90.70
2023-08-07T10:59:13.200Z,90.70
2023-08-07T11:01:40.093Z,90.40
2023-08-07T11:04:09.841Z,90.70
2023-08-07T11:06:38.699Z,90.10
2023-08-07T11:09:09.616Z,90.10
2023-08-07T11:11:43.060Z,88.10
2023-08-07T11:14:12.885Z,88.70
2023-08-07T11:16:40.032Z,88.30
2023-08-07T11:19:07.224Z,88.10
2023-08-07T11:21:34.894Z,86.40
2023-08-07T11:24:02.624Z,85.40
2023-08-07T11:26:29.912Z,86.20
2023-08-07T11:28:57.430Z,86.70
2023-08-07T11:31:26.275Z,86.20
2023-08-07T11:33:54.149Z,86.50
2023-08-07T11:36:21.077Z,86.40
2023-08-07T11:38:48.063Z,86.40
2023-08-07T11:41:18.677Z,86.30
2023-08-07T11:43:46.078Z,86.20
2023-08-07T11:46:15.952Z,86.40
2023-08-07T11:48:45.103Z,86.60
2023-08-07T11:51:12.292Z,86.90
2023-08-07T11:53:41.470Z,85.40
2023-08-07T11:56:16.393Z,83.20
2023-08-07T11:58:47.541Z,81.80
2023-08-07T12:01:27.157Z,82.10
2023-08-07T12:04:09.801Z,83.10
2023-08-07T12:06:40.216Z,80.60
2023-08-07T12:09:13.803Z,80.60
2023-08-07T12:11:40.887Z,80.30
2023-08-07T12:14:08.879Z,80.20
2023-08-07T12:16:36.940Z,79.90
2023-08-07T12:19:05.193Z,79.20
2023-08-07T12:21:34.463Z,78.60
2023-08-07T12:24:01.701Z,79.10
2023-08-07T12:26:28.766Z,79.00
2023-08-07T12:28:55.700Z,78.80
2023-08-07T12:31:22.887Z,79.20
2023-08-07T12:33:50.043Z,78.50
2023-08-07T12:38:47.566Z,78.10
2023-08-07T12:43:45.282Z,74.30
2023-08-07T12:48:42.044Z,75.00
2023-08-07T12:51:09.105Z,75.90
2023-08-07T12:53:36.223Z,75.80
2023-08-07T12:56:04.154Z,75.30
2023-08-07T12:58:31.184Z,76.80
2023-08-07T13:00:58.513Z,76.20
2023-08-07T13:03:25.675Z,75.90
2023-08-07T13:05:52.654Z,75.20
2023-08-07T13:08:19.664Z,75.40
2023-08-07T13:10:49.761Z,76.30
2023-08-07T13:13:17.246Z,76.50
2023-08-07T13:15:44.133Z,77.30
2023-08-07T13:18:11.814Z,77.20
2023-08-07T13:20:38.757Z,78.10
2023-08-07T13:23:07.320Z,76.70
2023-08-07T13:25:34.369Z,77.40
2023-08-07T13:28:02.053Z,78.40
2023-08-07T13:30:34.846Z,78.40
2023-08-07T13:33:02.905Z,78.80
2023-08-07T13:35:30.599Z,79.90
2023-08-07T13:37:57.536Z,79.70
2023-08-07T13:40:24.526Z,79.30
2023-08-07T13:42:51.504Z,78.10
2023-08-07T13:45:18.441Z,76.50
2023-08-07T13:47:45.431Z,77.30
2023-08-07T13:50:14.109Z,77.40
2023-08-07T13:52:41.177Z,77.40
2023-08-07T13:55:10.147Z,75.70
2023-08-07T13:57:37.369Z,76.80
2023-08-07T14:00:04.965Z,76.50
2023-08-07T14:02:34.266Z,76.10
2023-08-07T14:05:01.209Z,76.10
2023-08-07T14:07:28.129Z,75.90
2023-08-07T14:09:55.057Z,75.40
2023-08-07T14:12:21.955Z,76.00
2023-08-07T14:14:48.850Z,76.10
2023-08-07T14:17:15.727Z,77.40
2023-08-07T14:19:42.642Z,78.40
2023-08-07T14:22:09.585Z,77.90
2023-08-07T14:24:36.562Z,78.90
2023-08-07T14:27:03.695Z,77.40
2023-08-07T14:29:30.588Z,77.30
2023-08-07T14:31:57.488Z,75.40
2023-08-07T14:34:24.380Z,76.40
2023-08-07T14:36:51.611Z,75.80
2023-08-07T14:39:18.496Z,75.60
2023-08-07T14:41:45.830Z,76.60
2023-08-07T14:44:12.752Z,75.80
2023-08-07T14:46:39.744Z,75.70
2023-08-07T14:49:06.807Z,75.10
2023-08-07T14:51:33.744Z,74.40
2023-08-07T14:54:00.665Z,74.20
2023-08-07T14:56:27.607Z,72.50
2023-08-07T14:58:54.543Z,71.90
2023-08-07T15:01:21.591Z,72.80
2023-08-07T15:03:48.639Z,73.50
2023-08-07T15:06:15.860Z,72.60
2023-08-07T15:08:42.807Z,72.30
2023-08-07T15:11:09.752Z,71.70
2023-08-07T15:13:36.914Z,70.30
2023-08-07T15:16:03.898Z,69.60
2023-08-07T15:18:30.871Z,70.20
2023-08-07T15:20:59.395Z,68.00
2023-08-07T15:23:26.363Z,66.60
2023-08-07T15:25:53.858Z,66.60
2023-08-07T15:28:21.193Z,65.90
2023-08-07T15:30:50.422Z,65.50
2023-08-07T15:33:18.522Z,64.10
2023-08-07T15:35:45.803Z,62.70
2023-08-07T15:38:12.783Z,63.60
2023-08-07T15:40:41.205Z,63.50
2023-08-07T15:43:11.197Z,63.50
2023-08-07T15:45:38.245Z,63.70
2023-08-07T15:48:06.030Z,62.30
2023-08-07T15:50:37.703Z,62.80
2023-08-07T15:53:05.168Z,63.70
2023-08-07T15:55:34.987Z,64.60
2023-08-07T15:58:03.594Z,65.10
2023-08-07T16:00:34.815Z,66.50
2023-08-07T16:03:06.774Z,66.60
2023-08-07T16:05:35.827Z,66.20
2023-08-07T16:08:04.041Z,65.70
2023-08-07T16:10:31.738Z,67.50
2023-08-07T16:12:59.881Z,66.60
2023-08-07T16:15:27.213Z,66.50
2023-08-07T16:17:54.192Z,66.00
2023-08-07T16:20:21.387Z,66.70
2023-08-07T16:22:48.475Z,67.30
2023-08-07T16:25:15.543Z,67.60
2023-08-07T16:27:42.595Z,68.10
2023-08-07T16:30:09.912Z,68.50
2023-08-07T16:32:39.046Z,69.30
2023-08-07T16:35:07.351Z,68.60
2023-08-07T16:37:34.297Z,67.40
2023-08-07T16:40:01.720Z,68.20
2023-08-07T16:42:28.664Z,67.20
2023-08-07T16:44:55.792Z,66.80
2023-08-07T16:47:23.751Z,66.30
2023-08-07T16:49:51.697Z,67.60
2023-08-07T16:52:18.825Z,66.60
2023-08-07T16:54:49.233Z,66.60
2023-08-07T16:57:16.716Z,66.50
2023-08-07T16:59:43.696Z,65.50
2023-08-07T17:02:10.971Z,66.30
2023-08-07T17:04:38.891Z,65.60
2023-08-07T17:07:06.950Z,65.70
2023-08-07T17:09:33.916Z,65.10
2023-08-07T17:12:00.991Z,65.20
2023-08-07T17:14:27.917Z,65.50
2023-08-07T17:16:55.169Z,64.40
2023-08-07T17:19:22.636Z,65.20
2023-08-07T17:21:50.657Z,65.70
2023-08-07T17:24:17.656Z,66.10
2023-08-07T17:26:44.570Z,65.90
2023-08-07T17:29:11.536Z,66.70
2023-08-07T17:31:38.465Z,66.70
2023-08-07T17:34:05.457Z,66.50
2023-08-07T17:36:32.381Z,65.90
2023-08-07T17:39:00.869Z,65.70
2023-08-07T17:41:29.739Z,65.30
2023-08-07T17:43:56.765Z,65.90
2023-08-07T17:46:23.741Z,66.20
2023-08-07T17:48:50.690Z,67.10
2023-08-07T17:51:17.614Z,67.20
2023-08-07T17:53:44.557Z,66.80
2023-08-07T17:56:11.486Z,67.70
2023-08-07T17:58:38.434Z,67.90
2023-08-07T18:01:05.472Z,67.50
2023-08-07T18:03:32.478Z,67.50
2023-08-07T18:05:59.422Z,67.20
2023-08-07T18:08:26.376Z,67.40
2023-08-07T18:10:53.423Z,67.90
2023-08-07T18:13:20.404Z,67.70
2023-08-07T18:15:47.349Z,67.40
2023-08-07T18:18:14.351Z,67.40
2023-08-07T18:20:41.317Z,67.00
2023-08-07T18:23:08.295Z,67.00
2023-08-07T18:25:35.276Z,66.50
2023-08-07T18:28:02.253Z,66.90
2023-08-07T18:30:29.208Z,67.60
2023-08-07T18:32:56.217Z,67.80
2023-08-07T18:35:23.202Z,68.00
2023-08-07T18:37:50.329Z,68.10
2023-08-07T18:40:17.465Z,68.90
2023-08-07T18:42:44.506Z,69.10
2023-08-07T18:45:11.616Z,69.70
2023-08-07T18:47:39.073Z,70.50
2023-08-07T18:50:07.414Z,69.90
2023-08-07T18:52:34.396Z,70.10
2023-08-07T18:55:01.332Z,70.50
2023-08-07T18:57:28.283Z,70.30
2023-08-07T18:59:55.210Z,70.80
2023-08-07T19:02:22.156Z,70.50
2023-08-07T19:04:49.094Z,70.70
2023-08-07T19:07:16.038Z,71.20
2023-08-07T19:09:43.114Z,70.40
2023-08-07T19:12:10.251Z,70.10
2023-08-07T19:14:37.244Z,69.90
2023-08-07T19:17:08.331Z,69.10
2023-08-07T19:19:35.985Z,69.40
2023-08-07T19:22:04.598Z,70.00
2023-08-07T19:24:31.739Z,70.40
2023-08-07T19:26:59.013Z,69.90
2023-08-07T19:29:26.293Z,69.80
2023-08-07T19:31:53.513Z,70.30
2023-08-07T19:34:20.627Z,70.60
2023-08-07T19:36:50.551Z,70.70
2023-08-07T19:39:22.890Z,70.50
2023-08-07T19:41:49.912Z,70.10
2023-08-07T19:44:16.823Z,69.60
2023-08-07T19:46:43.735Z,69.90
2023-08-07T19:49:10.670Z,70.20
2023-08-07T19:51:37.592Z,70.60
2023-08-07T19:54:04.658Z,70.70
2023-08-07T19:56:35.213Z,70.50
2023-08-07T19:59:05.322Z,70.70
2023-08-07T20:01:32.914Z,71.00
2023-08-07T20:04:00.171Z,71.20
2023-08-07T20:06:35.811Z,71.00
2023-08-07T20:09:02.811Z,71.40
2023-08-07T20:11:39.031Z,71.80
2023-08-07T20:14:06.201Z,72.00
2023-08-07T20:16:33.284Z,72.30
2023-08-07T20:19:00.634Z,72.80
2023-08-07T20:21:27.991Z,73.00
2023-08-07T20:23:55.057Z,73.40
2023-08-07T20:26:22.599Z,73.70
2023-08-07T20:28:49.494Z,74.10
2023-08-07T20:31:16.661Z,74.70
2023-08-07T20:33:43.664Z,75.80
2023-08-07T20:36:10.599Z,76.50
2023-08-07T20:38:37.533Z,77.20
2023-08-07T20:41:04.532Z,77.60
2023-08-07T20:43:31.437Z,78.10
2023-08-07T20:45:58.377Z,78.30
2023-08-07T20:48:25.325Z,79.20
2023-08-07T20:50:52.886Z,79.50
2023-08-07T20:53:19.829Z,79.90
2023-08-07T20:55:46.790Z,81.20
2023-08-07T20:58:13.727Z,80.50
2023-08-07T21:00:40.690Z,80.70
2023-08-07T21:03:07.716Z,81.00
2023-08-07T21:05:34.702Z,81.10
2023-08-07T21:08:01.615Z,81.10
2023-08-07T21:10:28.659Z,81.30
2023-08-07T21:12:55.593Z,81.70
2023-08-07T21:15:22.632Z,82.00
2023-08-07T21:17:49.585Z,82.10
2023-08-07T21:20:16.633Z,82.60
2023-08-07T21:22:43.580Z,82.60
2023-08-07T21:25:10.521Z,83.00
2023-08-07T21:27:37.459Z,83.50
2023-08-07T21:30:04.773Z,83.80
2023-08-07T21:32:31.731Z,84.00
2023-08-07T21:34:58.678Z,84.20
2023-08-07T21:37:33.144Z,84.40
2023-08-07T21:40:00.697Z,85.20
2023-08-07T21:42:29.408Z,85.60
2023-08-07T21:44:56.450Z,86.40
2023-08-07T21:47:23.401Z,86.20
2023-08-07T21:49:50.432Z,86.90
2023-08-07T21:52:17.343Z,87.40
2023-08-07T21:54:44.259Z,87.50
2023-08-07T21:57:11.218Z,88.00
2023-08-07T21:59:38.140Z,88.30
2023-08-07T22:02:05.406Z,89.80
2023-08-07T22:04:32.371Z,90.10
2023-08-07T22:06:59.315Z,90.00
2023-08-07T22:09:26.340Z,90.00
2023-08-07T22:11:53.245Z,89.90
2023-08-07T22:14:20.175Z,90.00
2023-08-07T22:16:48.137Z,90.00
2023-08-07T22:19:15.086Z,90.10
2023-08-07T22:21:42.011Z,90.50
2023-08-07T22:24:08.978Z,90.60
2023-08-07T22:26:35.911Z,90.60
2023-08-07T22:29:02.846Z,90.90
2023-08-07T22:31:29.837Z,91.20
2023-08-07T22:33:56.796Z,91.30
2023-08-07T22:36:23.964Z,91.50
2023-08-07T22:38:50.867Z,91.60
2023-08-07T22:41:17.806Z,91.60
2023-08-07T22:43:44.726Z,91.80
2023-08-07T22:46:11.740Z,92.10
2023-08-07T22:48:38.739Z,92.20
2023-08-07T22:51:07.034Z,92.60
2023-08-07T22:53:34.005Z,92.90
2023-08-07T22:56:01.200Z,93.00
2023-08-07T22:58:28.121Z,93.00
2023-08-07T23:00:55.049Z,93.10
2023-08-07T23:03:22.080Z,93.00
2023-08-07T23:05:49.302Z,93.10
2023-08-07T23:08:16.271Z,93.10
2023-08-07T23:10:43.241Z,93.10
2023-08-07T23:13:10.180Z,93.20
2023-08-07T23:15:38.517Z,93.10
2023-08-07T23:18:06.089Z,93.20
2023-08-07T23:20:33.745Z,93.10
2023-08-07T23:23:00.677Z,93.10
2023-08-07T23:25:27.602Z,93.20
2023-08-07T23:27:54.521Z,93.20
2023-08-07T23:30:21.741Z,93.30
2023-08-07T23:32:48.745Z,93.20
2023-08-07T23:35:15.766Z,93.30
2023-08-07T23:37:42.828Z,93.30
2023-08-07T23:40:10.310Z,93.20
2023-08-07T23:42:37.226Z,93.20
2023-08-07T23:45:05.093Z,93.20
2023-08-07T23:47:32.088Z,93.10
2023-08-07T23:49:59.079Z,93.20
2023-08-07T23:52:26.050Z,93.20
2023-08-07T23:54:52.972Z,93.10
2023-08-07T23:57:19.888Z,93.10
2023-08-07T23:59:46.791Z,93.00
